sensor_id;sensor_type;location;lat;lon;timestamp;pressure;altitude;pressure_sealevel;temperature;humidity
19108;BME280;9686;48.832;9.126;2023-03-18T00:00:26;97695.81;;;11.02;100.00
19108;BME280;9686;48.832;9.126;2023-03-18T00:02:52;97696.66;;;11.04;100.00
19108;BME280;9686;48.832;9.126;2023-03-18T00:05:18;97702.72;;;11.06;100.00
19108;BME280;9686;48.832;9.126;2023-03-18T00:07:44;97707.16;;;11.00;100.00
19108;BME280;9686;48.832;9.126;2023-03-18T00:10:11;97698.22;;;11.15;100.00
19108;BME280;9686;48.832;9.126;2023-03-18T00:12:38;97700.19;;;11.02;100.00
19108;BME280;9686;48.832;9.126;2023-03-18T00:15:06;97696.03;;;10.89;100.00
19108;BME280;9686;48.832;9.126;2023-03-18T00:17:31;97692.63;;;10.85;100.00
19108;BME280;9686;48.832;9.126;2023-03-18T00:19:57;97695.16;;;10.88;100.00
19108;BME280;9686;48.832;9.126;2023-03-18T00:22:29;97694.34;;;10.86;100.00
19108;BME280;9686;48.832;9.126;2023-03-18T00:24:54;97700.66;;;10.71;100.00
19108;BME280;9686;48.832;9.126;2023-03-18T00:27:20;97704.97;;;10.74;100.00
19108;BME280;9686;48.832;9.126;2023-03-18T00:29:45;97706.50;;;10.86;100.00
19108;BME280;9686;48.832;9.126;2023-03-18T00:32:10;97708.31;;;10.82;100.00
19108;BME280;9686;48.832;9.126;2023-03-18T00:34:36;97715.03;;;10.98;100.00
19108;BME280;9686;48.832;9.126;2023-03-18T00:37:01;97718.44;;;11.02;100.00
19108;BME280;9686;48.832;9.126;2023-03-18T00:39:27;97715.81;;;11.03;100.00
19108;BME280;9686;48.832;9.126;2023-03-18T00:41:56;97725.28;;;11.07;100.00
19108;BME280;9686;48.832;9.126;2023-03-18T00:44:22;97727.84;;;11.10;100.00
19108;BME280;9686;48.832;9.126;2023-03-18T00:46:49;97734.19;;;10.96;100.00
19108;BME280;9686;48.832;9.126;2023-03-18T00:49:14;97738.38;;;11.04;100.00
19108;BME280;9686;48.832;9.126;2023-03-18T00:51:41;97733.19;;;11.03;100.00
19108;BME280;9686;48.832;9.126;2023-03-18T00:54:11;97729.75;;;11.01;100.00
19108;BME280;9686;48.832;9.126;2023-03-18T00:56:38;97734.16;;;10.97;100.00
19108;BME280;9686;48.832;9.126;2023-03-18T00:59:04;97734.28;;;10.88;100.00
19108;BME280;9686;48.832;9.126;2023-03-18T01:01:30;97735.13;;;10.89;100.00
19108;BME280;9686;48.832;9.126;2023-03-18T01:03:56;97739.34;;;10.99;100.00
19108;BME280;9686;48.832;9.126;2023-03-18T01:06:26;97738.47;;;11.00;100.00
19108;BME280;9686;48.832;9.126;2023-03-18T01:08:53;97734.06;;;11.03;100.00
19108;BME280;9686;48.832;9.126;2023-03-18T01:11:19;97731.63;;;10.91;100.00
19108;BME280;9686;48.832;9.126;2023-03-18T01:13:45;97733.28;;;10.98;100.00
19108;BME280;9686;48.832;9.126;2023-03-18T01:16:10;97734.19;;;10.93;100.00
19108;BME280;9686;48.832;9.126;2023-03-18T01:18:37;97733.25;;;11.00;100.00
19108;BME280;9686;48.832;9.126;2023-03-18T01:21:03;97731.56;;;10.97;100.00
19108;BME280;9686;48.832;9.126;2023-03-18T01:23:28;97735.94;;;10.92;100.00
19108;BME280;9686;48.832;9.126;2023-03-18T01:25:54;97737.53;;;11.04;100.00
19108;BME280;9686;48.832;9.126;2023-03-18T01:28:21;97739.31;;;11.00;100.00
19108;BME280;9686;48.832;9.126;2023-03-18T01:30:47;97733.47;;;10.85;100.00
19108;BME280;9686;48.832;9.126;2023-03-18T01:33:12;97724.91;;;10.76;100.00
19108;BME280;9686;48.832;9.126;2023-03-18T01:35:39;97717.75;;;10.89;100.00
19108;BME280;9686;48.832;9.126;2023-03-18T01:38:05;97720.41;;;10.86;100.00
19108;BME280;9686;48.832;9.126;2023-03-18T01:40:35;97725.44;;;10.98;100.00
19108;BME280;9686;48.832;9.126;2023-03-18T01:45:35;97720.13;;;11.04;100.00
19108;BME280;9686;48.832;9.126;2023-03-18T01:48:00;97721.09;;;10.99;100.00
19108;BME280;9686;48.832;9.126;2023-03-18T01:50:34;97718.47;;;10.99;100.00
19108;BME280;9686;48.832;9.126;2023-03-18T01:53:06;97717.56;;;11.03;100.00
19108;BME280;9686;48.832;9.126;2023-03-18T01:55:33;97717.28;;;11.20;100.00
19108;BME280;9686;48.832;9.126;2023-03-18T01:58:04;97717.88;;;11.35;97.51
19108;BME280;9686;48.832;9.126;2023-03-18T02:00:33;97718.56;;;11.47;93.07
19108;BME280;9686;48.832;9.126;2023-03-18T02:03:00;97722.75;;;11.55;88.75
19108;BME280;9686;48.832;9.126;2023-03-18T02:05:27;97716.53;;;11.62;89.96
19108;BME280;9686;48.832;9.126;2023-03-18T02:07:52;97719.09;;;11.64;83.08
19108;BME280;9686;48.832;9.126;2023-03-18T02:12:58;97719.84;;;11.70;78.60
19108;BME280;9686;48.832;9.126;2023-03-18T02:15:25;97718.84;;;11.81;77.83
19108;BME280;9686;48.832;9.126;2023-03-18T02:17:59;97723.22;;;11.79;76.70
19108;BME280;9686;48.832;9.126;2023-03-18T02:23:34;97719.75;;;11.78;73.79
19108;BME280;9686;48.832;9.126;2023-03-18T02:28:40;97719.59;;;11.86;76.09
19108;BME280;9686;48.832;9.126;2023-03-18T02:31:11;97726.66;;;11.82;73.60
19108;BME280;9686;48.832;9.126;2023-03-18T02:33:39;97721.41;;;11.82;74.34
19108;BME280;9686;48.832;9.126;2023-03-18T02:36:11;97722.38;;;11.77;74.18
19108;BME280;9686;48.832;9.126;2023-03-18T02:38:42;97724.13;;;11.76;74.80
19108;BME280;9686;48.832;9.126;2023-03-18T02:41:25;97728.44;;;11.80;74.14
19108;BME280;9686;48.832;9.126;2023-03-18T02:43:51;97718.91;;;11.76;73.64
19108;BME280;9686;48.832;9.126;2023-03-18T02:46:37;97720.59;;;11.80;73.60
19108;BME280;9686;48.832;9.126;2023-03-18T02:49:08;97726.81;;;11.71;77.94
19108;BME280;9686;48.832;9.126;2023-03-18T02:51:35;97731.97;;;11.74;82.93
19108;BME280;9686;48.832;9.126;2023-03-18T02:54:06;97728.66;;;11.65;86.66
19108;BME280;9686;48.832;9.126;2023-03-18T02:56:33;97735.03;;;11.50;94.23
19108;BME280;9686;48.832;9.126;2023-03-18T02:58:58;97741.94;;;11.53;96.25
19108;BME280;9686;48.832;9.126;2023-03-18T03:01:24;97741.44;;;11.31;95.12
19108;BME280;9686;48.832;9.126;2023-03-18T03:03:49;97739.91;;;11.19;100.00
19108;BME280;9686;48.832;9.126;2023-03-18T03:06:15;97738.31;;;11.09;100.00
19108;BME280;9686;48.832;9.126;2023-03-18T03:08:41;97734.94;;;11.02;100.00
19108;BME280;9686;48.832;9.126;2023-03-18T03:11:07;97735.16;;;10.87;100.00
19108;BME280;9686;48.832;9.126;2023-03-18T03:13:32;97745.66;;;10.82;100.00
19108;BME280;9686;48.832;9.126;2023-03-18T03:15:58;97750.94;;;10.79;100.00
19108;BME280;9686;48.832;9.126;2023-03-18T03:18:23;97752.72;;;10.76;100.00
19108;BME280;9686;48.832;9.126;2023-03-18T03:20:50;97755.22;;;10.82;100.00
19108;BME280;9686;48.832;9.126;2023-03-18T03:23:16;97752.09;;;10.59;100.00
19108;BME280;9686;48.832;9.126;2023-03-18T03:25:43;97752.31;;;10.42;100.00
19108;BME280;9686;48.832;9.126;2023-03-18T03:28:12;97757.47;;;10.46;100.00
19108;BME280;9686;48.832;9.126;2023-03-18T03:30:38;97758.41;;;10.39;100.00
19108;BME280;9686;48.832;9.126;2023-03-18T03:33:04;97759.25;;;10.44;100.00
19108;BME280;9686;48.832;9.126;2023-03-18T03:35:29;97755.19;;;10.21;100.00
19108;BME280;9686;48.832;9.126;2023-03-18T03:37:54;97762.25;;;10.06;100.00
19108;BME280;9686;48.832;9.126;2023-03-18T03:40:20;97761.25;;;10.18;100.00
19108;BME280;9686;48.832;9.126;2023-03-18T03:42:46;97769.09;;;10.16;100.00
19108;BME280;9686;48.832;9.126;2023-03-18T03:45:13;97764.06;;;10.01;100.00
19108;BME280;9686;48.832;9.126;2023-03-18T03:47:40;97764.91;;;10.02;100.00
19108;BME280;9686;48.832;9.126;2023-03-18T03:50:06;97766.66;;;10.01;100.00
19108;BME280;9686;48.832;9.126;2023-03-18T03:52:32;97760.69;;;9.88;100.00
19108;BME280;9686;48.832;9.126;2023-03-18T03:54:58;97767.78;;;9.76;100.00
19108;BME280;9686;48.832;9.126;2023-03-18T03:57:25;97756.63;;;9.66;100.00
19108;BME280;9686;48.832;9.126;2023-03-18T03:59:51;97757.38;;;9.76;100.00
19108;BME280;9686;48.832;9.126;2023-03-18T04:02:17;97759.44;;;9.43;100.00
19108;BME280;9686;48.832;9.126;2023-03-18T04:04:43;97769.84;;;9.43;100.00
19108;BME280;9686;48.832;9.126;2023-03-18T04:07:11;97764.69;;;9.39;100.00
19108;BME280;9686;48.832;9.126;2023-03-18T04:09:37;97770.75;;;9.38;100.00
19108;BME280;9686;48.832;9.126;2023-03-18T04:12:03;97764.50;;;9.55;100.00
19108;BME280;9686;48.832;9.126;2023-03-18T04:14:28;97777.66;;;9.40;100.00
19108;BME280;9686;48.832;9.126;2023-03-18T04:16:54;97775.97;;;9.32;100.00
19108;BME280;9686;48.832;9.126;2023-03-18T04:19:23;97783.84;;;9.25;100.00
19108;BME280;9686;48.832;9.126;2023-03-18T04:21:48;97776.97;;;9.18;100.00
19108;BME280;9686;48.832;9.126;2023-03-18T04:24:14;97784.63;;;9.34;100.00
19108;BME280;9686;48.832;9.126;2023-03-18T04:26:39;97780.41;;;9.20;100.00
19108;BME280;9686;48.832;9.126;2023-03-18T04:29:04;97778.75;;;9.10;100.00
19108;BME280;9686;48.832;9.126;2023-03-18T04:31:31;97784.00;;;9.04;100.00
19108;BME280;9686;48.832;9.126;2023-03-18T04:33:56;97783.09;;;9.08;100.00
19108;BME280;9686;48.832;9.126;2023-03-18T04:36:23;97782.19;;;9.15;100.00
19108;BME280;9686;48.832;9.126;2023-03-18T04:38:49;97790.91;;;9.07;100.00
19108;BME280;9686;48.832;9.126;2023-03-18T04:41:14;97786.63;;;8.98;100.00
19108;BME280;9686;48.832;9.126;2023-03-18T04:43:39;97783.16;;;9.02;100.00
19108;BME280;9686;48.832;9.126;2023-03-18T04:46:05;97787.47;;;9.02;100.00
19108;BME280;9686;48.832;9.126;2023-03-18T04:48:31;97779.72;;;8.95;100.00
19108;BME280;9686;48.832;9.126;2023-03-18T04:50:56;97789.22;;;9.01;100.00
19108;BME280;9686;48.832;9.126;2023-03-18T04:53:21;97789.31;;;8.87;100.00
19108;BME280;9686;48.832;9.126;2023-03-18T04:55:48;97789.34;;;8.80;100.00
19108;BME280;9686;48.832;9.126;2023-03-18T04:58:14;97795.41;;;8.85;100.00
19108;BME280;9686;48.832;9.126;2023-03-18T05:00:40;97794.53;;;8.87;100.00
19108;BME280;9686;48.832;9.126;2023-03-18T05:03:06;97788.59;;;8.64;100.00
19108;BME280;9686;48.832;9.126;2023-03-18T05:05:32;97786.81;;;8.69;100.00
19108;BME280;9686;48.832;9.126;2023-03-18T05:07:58;97784.28;;;8.60;100.00
19108;BME280;9686;48.832;9.126;2023-03-18T05:10:24;97783.41;;;8.59;100.00
19108;BME280;9686;48.832;9.126;2023-03-18T05:12:49;97786.97;;;8.37;100.00
19108;BME280;9686;48.832;9.126;2023-03-18T05:15:14;97783.53;;;8.35;100.00
19108;BME280;9686;48.832;9.126;2023-03-18T05:17:40;97786.94;;;8.32;100.00
19108;BME280;9686;48.832;9.126;2023-03-18T05:20:07;97791.28;;;8.32;100.00
19108;BME280;9686;48.832;9.126;2023-03-18T05:22:32;97789.63;;;8.14;100.00
19108;BME280;9686;48.832;9.126;2023-03-18T05:24:58;97792.22;;;8.11;100.00
19108;BME280;9686;48.832;9.126;2023-03-18T05:27:23;97794.78;;;8.20;100.00
19108;BME280;9686;48.832;9.126;2023-03-18T05:29:49;97796.53;;;8.17;100.00
19108;BME280;9686;48.832;9.126;2023-03-18T05:32:14;97793.09;;;8.13;100.00
19108;BME280;9686;48.832;9.126;2023-03-18T05:34:41;97800.00;;;8.13;100.00
19108;BME280;9686;48.832;9.126;2023-03-18T05:37:09;97796.56;;;8.03;100.00
19108;BME280;9686;48.832;9.126;2023-03-18T05:39:35;97797.41;;;8.14;100.00
19108;BME280;9686;48.832;9.126;2023-03-18T05:42:01;97799.13;;;8.18;100.00
19108;BME280;9686;48.832;9.126;2023-03-18T05:44:28;97797.44;;;8.10;100.00
19108;BME280;9686;48.832;9.126;2023-03-18T05:46:54;97805.22;;;7.99;100.00
19108;BME280;9686;48.832;9.126;2023-03-18T05:49:19;97806.97;;;7.97;100.00
19108;BME280;9686;48.832;9.126;2023-03-18T05:51:45;97807.81;;;8.10;100.00
19108;BME280;9686;48.832;9.126;2023-03-18T05:54:12;97796.56;;;8.01;100.00
19108;BME280;9686;48.832;9.126;2023-03-18T05:56:38;97802.63;;;7.99;100.00
19108;BME280;9686;48.832;9.126;2023-03-18T05:59:04;97800.94;;;7.86;100.00
19108;BME280;9686;48.832;9.126;2023-03-18T06:01:30;97804.41;;;7.91;100.00
19108;BME280;9686;48.832;9.126;2023-03-18T06:03:57;97807.88;;;7.82;100.00
19108;BME280;9686;48.832;9.126;2023-03-18T06:06:24;97804.38;;;7.97;100.00
19108;BME280;9686;48.832;9.126;2023-03-18T06:08:50;97801.78;;;7.80;100.00
19108;BME280;9686;48.832;9.126;2023-03-18T06:11:16;97813.06;;;7.82;100.00
19108;BME280;9686;48.832;9.126;2023-03-18T06:13:42;97812.16;;;7.92;100.00
19108;BME280;9686;48.832;9.126;2023-03-18T06:16:09;97807.84;;;7.96;100.00
19108;BME280;9686;48.832;9.126;2023-03-18T06:18:35;97807.88;;;7.82;100.00
19108;BME280;9686;48.832;9.126;2023-03-18T06:21:01;97807.84;;;7.78;100.00
19108;BME280;9686;48.832;9.126;2023-03-18T06:23:26;97808.72;;;7.90;100.00
19108;BME280;9686;48.832;9.126;2023-03-18T06:25:51;97813.91;;;7.87;100.00
19108;BME280;9686;48.832;9.126;2023-03-18T06:28:17;97822.59;;;7.82;100.00
19108;BME280;9686;48.832;9.126;2023-03-18T06:30:43;97826.03;;;7.88;100.00
19108;BME280;9686;48.832;9.126;2023-03-18T06:33:08;97820.78;;;8.05;100.00
19108;BME280;9686;48.832;9.126;2023-03-18T06:35:33;97822.56;;;7.92;100.00
19108;BME280;9686;48.832;9.126;2023-03-18T06:37:59;97825.97;;;8.14;100.00
19108;BME280;9686;48.832;9.126;2023-03-18T06:40:25;97826.84;;;8.09;100.00
19108;BME280;9686;48.832;9.126;2023-03-18T06:42:50;97824.25;;;8.09;100.00
19108;BME280;9686;48.832;9.126;2023-03-18T06:45:16;97821.63;;;8.19;100.00
19108;BME280;9686;48.832;9.126;2023-03-18T06:47:42;97824.25;;;8.09;100.00
19108;BME280;9686;48.832;9.126;2023-03-18T06:50:09;97831.09;;;8.31;100.00
19108;BME280;9686;48.832;9.126;2023-03-18T06:52:35;97821.56;;;8.31;100.00
19108;BME280;9686;48.832;9.126;2023-03-18T06:55:01;97831.06;;;8.48;100.00
19108;BME280;9686;48.832;9.126;2023-03-18T06:57:26;97824.19;;;8.38;100.00
19108;BME280;9686;48.832;9.126;2023-03-18T06:59:53;97827.59;;;8.50;100.00
19108;BME280;9686;48.832;9.126;2023-03-18T07:02:19;97827.56;;;8.56;100.00
19108;BME280;9686;48.832;9.126;2023-03-18T07:04:47;97827.53;;;8.67;100.00
19108;BME280;9686;48.832;9.126;2023-03-18T07:07:12;97830.91;;;8.84;100.00
19108;BME280;9686;48.832;9.126;2023-03-18T07:09:38;97829.13;;;8.94;100.00
19108;BME280;9686;48.832;9.126;2023-03-18T07:12:05;97816.88;;;9.13;100.00
19108;BME280;9686;48.832;9.126;2023-03-18T07:14:30;97822.75;;;9.36;100.00
19108;BME280;9686;48.832;9.126;2023-03-18T07:16:56;97826.06;;;9.56;100.00
19108;BME280;9686;48.832;9.126;2023-03-18T07:19:21;97825.06;;;9.73;100.00
19108;BME280;9686;48.832;9.126;2023-03-18T07:21:47;97818.91;;;9.83;100.00
19108;BME280;9686;48.832;9.126;2023-03-18T07:24:14;97824.72;;;10.09;100.00
19108;BME280;9686;48.832;9.126;2023-03-18T07:26:41;97821.06;;;10.29;100.00
19108;BME280;9686;48.832;9.126;2023-03-18T07:29:07;97821.72;;;10.47;100.00
19108;BME280;9686;48.832;9.126;2023-03-18T07:31:32;97831.03;;;10.70;100.00
19108;BME280;9686;48.832;9.126;2023-03-18T07:33:57;97841.13;;;10.91;100.00
19108;BME280;9686;48.832;9.126;2023-03-18T07:36:23;97832.19;;;11.10;100.00
19108;BME280;9686;48.832;9.126;2023-03-18T07:38:49;97837.13;;;11.30;100.00
19108;BME280;9686;48.832;9.126;2023-03-18T07:41:15;97837.75;;;11.48;96.34
19108;BME280;9686;48.832;9.126;2023-03-18T07:43:40;97838.38;;;11.62;93.31
19108;BME280;9686;48.832;9.126;2023-03-18T07:46:06;97839.78;;;11.84;92.37
19108;BME280;9686;48.832;9.126;2023-03-18T07:48:31;97836.88;;;12.01;82.34
19108;BME280;9686;48.832;9.126;2023-03-18T07:50:58;97841.00;;;12.13;84.86
19108;BME280;9686;48.832;9.126;2023-03-18T07:53:24;97843.22;;;12.34;81.19
19108;BME280;9686;48.832;9.126;2023-03-18T07:55:50;97838.97;;;12.72;81.64
19108;BME280;9686;48.832;9.126;2023-03-18T07:58:15;97835.13;;;12.89;77.76
19108;BME280;9686;48.832;9.126;2023-03-18T08:00:41;97829.53;;;13.06;73.91
19108;BME280;9686;48.832;9.126;2023-03-18T08:03:06;97832.75;;;13.19;73.32
19108;BME280;9686;48.832;9.126;2023-03-18T08:05:33;97833.41;;;13.30;69.59
19108;BME280;9686;48.832;9.126;2023-03-18T08:07:58;97834.81;;;13.43;71.77
19108;BME280;9686;48.832;9.126;2023-03-18T08:10:23;97841.47;;;13.58;71.10
19108;BME280;9686;48.832;9.126;2023-03-18T08:12:49;97841.84;;;13.77;66.35
19108;BME280;9686;48.832;9.126;2023-03-18T08:15:14;97842.50;;;13.86;66.06
19108;BME280;9686;48.832;9.126;2023-03-18T08:17:40;97836.81;;;14.03;64.68
19108;BME280;9686;48.832;9.126;2023-03-18T08:20:06;97842.06;;;14.03;63.00
19108;BME280;9686;48.832;9.126;2023-03-18T08:22:31;97845.88;;;14.24;58.99
19108;BME280;9686;48.832;9.126;2023-03-18T08:24:57;97843.91;;;14.34;60.30
19108;BME280;9686;48.832;9.126;2023-03-18T08:27:23;97844.53;;;14.42;63.57
19108;BME280;9686;48.832;9.126;2023-03-18T08:29:48;97838.03;;;14.57;60.87
19108;BME280;9686;48.832;9.126;2023-03-18T08:32:14;97840.50;;;14.63;59.66
19108;BME280;9686;48.832;9.126;2023-03-18T08:34:39;97838.88;;;14.59;62.80
19108;BME280;9686;48.832;9.126;2023-03-18T08:37:05;97846.75;;;14.57;62.70
19108;BME280;9686;48.832;9.126;2023-03-18T08:39:32;97838.66;;;14.66;59.78
19108;BME280;9686;48.832;9.126;2023-03-18T08:41:57;97836.13;;;14.93;54.08
19108;BME280;9686;48.832;9.126;2023-03-18T08:44:23;97839.75;;;14.89;52.38
19108;BME280;9686;48.832;9.126;2023-03-18T08:46:49;97841.06;;;15.03;50.93
19108;BME280;9686;48.832;9.126;2023-03-18T08:49:14;97834.66;;;15.14;50.99
19108;BME280;9686;48.832;9.126;2023-03-18T08:51:40;97838.28;;;15.37;47.28
19108;BME280;9686;48.832;9.126;2023-03-18T08:54:06;97832.63;;;15.50;47.16
19108;BME280;9686;48.832;9.126;2023-03-18T08:56:32;97833.25;;;15.58;48.83
19108;BME280;9686;48.832;9.126;2023-03-18T08:58:58;97830.41;;;15.65;49.80
19108;BME280;9686;48.832;9.126;2023-03-18T09:01:23;97835.38;;;15.75;50.70
19108;BME280;9686;48.832;9.126;2023-03-18T09:03:49;97827.44;;;15.76;49.15
19108;BME280;9686;48.832;9.126;2023-03-18T09:06:15;97823.69;;;15.83;46.31
19108;BME280;9686;48.832;9.126;2023-03-18T09:08:40;97827.97;;;15.86;45.82
19108;BME280;9686;48.832;9.126;2023-03-18T09:11:07;97831.03;;;16.25;44.70
19108;BME280;9686;48.832;9.126;2023-03-18T09:13:34;97824.69;;;16.30;45.48
19108;BME280;9686;48.832;9.126;2023-03-18T09:15:59;97828.69;;;16.42;44.81
19108;BME280;9686;48.832;9.126;2023-03-18T09:18:25;97823.25;;;16.47;44.61
19108;BME280;9686;48.832;9.126;2023-03-18T09:20:50;97819.59;;;16.51;44.69
19108;BME280;9686;48.832;9.126;2023-03-18T09:23:16;97822.38;;;16.71;44.71
19108;BME280;9686;48.832;9.126;2023-03-18T09:25:43;97822.34;;;16.73;43.99
19108;BME280;9686;48.832;9.126;2023-03-18T09:28:09;97813.22;;;16.56;44.70
19108;BME280;9686;48.832;9.126;2023-03-18T09:30:35;97817.94;;;16.48;43.83
19108;BME280;9686;48.832;9.126;2023-03-18T09:33:00;97820.28;;;16.56;45.90
19108;BME280;9686;48.832;9.126;2023-03-18T09:35:26;97810.94;;;16.72;44.37
19108;BME280;9686;48.832;9.126;2023-03-18T09:37:54;97806.41;;;16.76;44.92
19108;BME280;9686;48.832;9.126;2023-03-18T09:40:25;97809.97;;;16.98;44.50
19108;BME280;9686;48.832;9.126;2023-03-18T09:46:05;97804.41;;;17.06;44.45
19108;BME280;9686;48.832;9.126;2023-03-18T09:54:07;97799.88;;;17.09;47.98
19108;BME280;9686;48.832;9.126;2023-03-18T09:56:34;97803.81;;;17.21;46.61
19108;BME280;9686;48.832;9.126;2023-03-18T10:01:43;97789.41;;;17.30;47.65
19108;BME280;9686;48.832;9.126;2023-03-18T10:04:19;97790.09;;;17.35;46.46
19108;BME280;9686;48.832;9.126;2023-03-18T10:06:47;97787.91;;;17.46;45.62
19108;BME280;9686;48.832;9.126;2023-03-18T10:09:43;97790.59;;;17.44;45.11
19108;BME280;9686;48.832;9.126;2023-03-18T10:12:43;97784.94;;;17.32;46.30
19108;BME280;9686;48.832;9.126;2023-03-18T10:17:49;97787.91;;;17.66;45.01
19108;BME280;9686;48.832;9.126;2023-03-18T10:23:23;97783.19;;;18.16;42.28
19108;BME280;9686;48.832;9.126;2023-03-18T10:25:52;97780.59;;;17.95;42.17
19108;BME280;9686;48.832;9.126;2023-03-18T10:28:41;97778.88;;;17.94;42.04
19108;BME280;9686;48.832;9.126;2023-03-18T10:34:22;97783.69;;;17.84;43.16
19108;BME280;9686;48.832;9.126;2023-03-18T10:36:54;97788.59;;;18.13;43.47
19108;BME280;9686;48.832;9.126;2023-03-18T10:39:25;97782.38;;;17.94;42.38
19108;BME280;9686;48.832;9.126;2023-03-18T10:41:53;97783.91;;;17.79;41.46
19108;BME280;9686;48.832;9.126;2023-03-18T10:44:25;97793.81;;;18.15;42.85
19108;BME280;9686;48.832;9.126;2023-03-18T10:49:30;97777.78;;;17.99;43.46
19108;BME280;9686;48.832;9.126;2023-03-18T10:52:25;97770.03;;;17.95;43.63
19108;BME280;9686;48.832;9.126;2023-03-18T10:54:54;97763.47;;;18.05;42.68
19108;BME280;9686;48.832;9.126;2023-03-18T10:57:20;97763.19;;;18.11;43.37
19108;BME280;9686;48.832;9.126;2023-03-18T10:59:48;97758.25;;;18.24;43.48
19108;BME280;9686;48.832;9.126;2023-03-18T11:02:31;97759.50;;;18.35;44.12
19108;BME280;9686;48.832;9.126;2023-03-18T11:05:03;97748.97;;;18.54;43.07
19108;BME280;9686;48.832;9.126;2023-03-18T11:07:29;97745.63;;;18.51;42.91
19108;BME280;9686;48.832;9.126;2023-03-18T11:10:10;97754.25;;;18.54;42.16
19108;BME280;9686;48.832;9.126;2023-03-18T11:12:36;97746.72;;;18.45;42.88
19108;BME280;9686;48.832;9.126;2023-03-18T11:15:09;97750.53;;;18.58;43.27
19108;BME280;9686;48.832;9.126;2023-03-18T11:17:35;97750.28;;;18.64;43.12
19108;BME280;9686;48.832;9.126;2023-03-18T11:22:44;97739.19;;;18.76;43.13
19108;BME280;9686;48.832;9.126;2023-03-18T11:25:22;97733.22;;;18.71;41.41
19108;BME280;9686;48.832;9.126;2023-03-18T11:27:59;97727.75;;;18.76;42.45
19108;BME280;9686;48.832;9.126;2023-03-18T11:30:28;97729.28;;;19.18;41.62
19108;BME280;9686;48.832;9.126;2023-03-18T11:35:44;97732.59;;;19.40;41.56
19108;BME280;9686;48.832;9.126;2023-03-18T11:38:25;97734.69;;;19.33;41.86
19108;BME280;9686;48.832;9.126;2023-03-18T11:41:14;97725.59;;;19.39;40.80
19108;BME280;9686;48.832;9.126;2023-03-18T11:43:59;97719.97;;;19.64;41.35
19108;BME280;9686;48.832;9.126;2023-03-18T11:46:27;97716.44;;;19.98;40.74
19108;BME280;9686;48.832;9.126;2023-03-18T11:48:54;97711.72;;;20.38;39.29
19108;BME280;9686;48.832;9.126;2023-03-18T11:51:25;97699.53;;;20.84;39.68
19108;BME280;9686;48.832;9.126;2023-03-18T12:01:42;97683.03;;;24.19;31.75
19108;BME280;9686;48.832;9.126;2023-03-18T12:10:02;97681.75;;;25.36;28.44
19108;BME280;9686;48.832;9.126;2023-03-18T12:12:51;97686.41;;;26.15;nan
19108;BME280;9686;48.832;9.126;2023-03-18T12:20:54;97686.84;;;26.89;nan
19108;BME280;9686;48.832;9.126;2023-03-18T12:23:49;97677.13;;;26.54;nan
19108;BME280;9686;48.832;9.126;2023-03-18T12:32:18;97667.06;;;24.57;nan
19108;BME280;9686;48.832;9.126;2023-03-18T12:37:38;97665.78;;;22.93;nan
19108;BME280;9686;48.832;9.126;2023-03-18T12:43:26;97667.06;;;21.42;nan
19108;BME280;9686;48.832;9.126;2023-03-18T12:46:00;97666.53;;;20.89;nan
19108;BME280;9686;48.832;9.126;2023-03-18T12:48:34;97672.75;;;20.73;nan
19108;BME280;9686;48.832;9.126;2023-03-18T12:51:11;97669.66;;;20.80;nan
19108;BME280;9686;48.832;9.126;2023-03-18T12:53:42;97661.53;;;20.99;nan
19108;BME280;9686;48.832;9.126;2023-03-18T12:56:12;97664.31;;;20.66;nan
19108;BME280;9686;48.832;9.126;2023-03-18T12:58:44;97656.63;;;20.61;nan
19108;BME280;9686;48.832;9.126;2023-03-18T13:01:19;97660.13;;;20.62;nan
19108;BME280;9686;48.832;9.126;2023-03-18T13:03:52;97661.75;;;20.31;nan
19108;BME280;9686;48.832;9.126;2023-03-18T13:06:25;97659.81;;;20.35;nan
19108;BME280;9686;48.832;9.126;2023-03-18T13:09:20;97645.72;;;20.35;nan
19108;BME280;9686;48.832;9.126;2023-03-18T13:12:05;97640.88;;;20.25;nan
19108;BME280;9686;48.832;9.126;2023-03-18T13:17:00;97649.22;;;20.35;nan
19108;BME280;9686;48.832;9.126;2023-03-18T13:19:27;97640.16;;;20.39;nan
19108;BME280;9686;48.832;9.126;2023-03-18T13:25:03;97641.13;;;20.54;nan
19108;BME280;9686;48.832;9.126;2023-03-18T13:30:17;97636.28;;;20.62;nan
19108;BME280;9686;48.832;9.126;2023-03-18T13:43:32;97637.34;;;21.05;nan
19108;BME280;9686;48.832;9.126;2023-03-18T13:46:02;97642.63;;;21.05;nan
19108;BME280;9686;48.832;9.126;2023-03-18T13:48:31;97638.72;;;20.97;nan
19108;BME280;9686;48.832;9.126;2023-03-18T13:50:58;97634.28;;;20.81;nan
19108;BME280;9686;48.832;9.126;2023-03-18T13:53:40;97639.94;;;20.91;nan
19108;BME280;9686;48.832;9.126;2023-03-18T13:56:30;97638.38;;;21.03;nan
19108;BME280;9686;48.832;9.126;2023-03-18T13:59:01;97634.13;;;20.84;nan
19108;BME280;9686;48.832;9.126;2023-03-18T14:01:31;97628.47;;;20.90;nan
19108;BME280;9686;48.832;9.126;2023-03-18T14:04:00;97632.53;;;20.82;nan
19108;BME280;9686;48.832;9.126;2023-03-18T14:09:30;97632.31;;;21.01;nan
19108;BME280;9686;48.832;9.126;2023-03-18T14:12:18;97631.13;;;20.90;nan
19108;BME280;9686;48.832;9.126;2023-03-18T14:17:17;97622.25;;;20.76;nan
19108;BME280;9686;48.832;9.126;2023-03-18T14:19:46;97620.13;;;20.67;nan
19108;BME280;9686;48.832;9.126;2023-03-18T14:22:27;97633.97;;;20.56;nan
19108;BME280;9686;48.832;9.126;2023-03-18T14:25:18;97620.75;;;20.56;nan
19108;BME280;9686;48.832;9.126;2023-03-18T14:33:01;97624.84;;;20.61;nan
19108;BME280;9686;48.832;9.126;2023-03-18T14:35:34;97627.13;;;20.52;nan
19108;BME280;9686;48.832;9.126;2023-03-18T14:38:17;97609.97;;;20.59;nan
19108;BME280;9686;48.832;9.126;2023-03-18T14:40:48;97614.31;;;20.60;nan
19108;BME280;9686;48.832;9.126;2023-03-18T14:43:24;97615.75;;;20.50;nan
19108;BME280;9686;48.832;9.126;2023-03-18T14:45:51;97609.78;;;20.62;nan
19108;BME280;9686;48.832;9.126;2023-03-18T14:48:25;97599.44;;;20.73;nan
19108;BME280;9686;48.832;9.126;2023-03-18T14:50:55;97604.44;;;21.09;nan
19108;BME280;9686;48.832;9.126;2023-03-18T14:53:36;97600.13;;;21.07;nan
19108;BME280;9686;48.832;9.126;2023-03-18T14:56:04;97600.88;;;20.94;nan
19108;BME280;9686;48.832;9.126;2023-03-18T14:58:32;97601.81;;;20.78;nan